Time;durP1;ratioP1;P1;durP2;ratioP2;P2;SDS_P1;SDS_P2;PMS_P1;PMS_P2;Temp;Humidity;BMP_temperature;BMP_pressure;BME280_temperature;BME280_humidity;BME280_pressure;Samples;Min_cycle;Max_cycle;Signal;HPM_P1;HPM_P2
2020/12/07 00:01:17;;;;;;;6.13;5.53;;;9.00;60.20;;;;;;5007618;28;20551;-42
2020/12/07 00:03:43;;;;;;;7.13;6.40;;;8.90;60.40;;;;;;5010823;28;20638;-42
2020/12/07 00:06:10;;;;;;;8.00;6.00;;;8.90;60.40;;;;;;5010172;28;20198;-42
2020/12/07 00:08:36;;;;;;;7.07;6.37;;;8.90;59.90;;;;;;5010262;28;20198;-42
2020/12/07 00:11:02;;;;;;;6.03;5.43;;;8.80;60.00;;;;;;5010452;28;20433;-42
2020/12/07 00:13:27;;;;;;;7.57;5.63;;;8.80;60.10;;;;;;5011242;28;21100;-42
2020/12/07 00:15:53;;;;;;;8.70;7.57;;;8.50;60.90;;;;;;5011452;28;20198;-42
2020/12/07 00:18:18;;;;;;;7.67;6.60;;;8.40;61.10;;;;;;5010173;28;20697;-42
2020/12/07 00:20:45;;;;;;;7.40;6.70;;;8.30;61.60;;;;;;5006395;28;20277;-42
2020/12/07 00:23:11;;;;;;;8.47;6.40;;;8.30;62.10;;;;;;5009969;28;20198;-42
2020/12/07 00:25:38;;;;;;;8.17;6.57;;;8.10;62.10;;;;;;5009063;28;20445;-43
2020/12/07 00:28:03;;;;;;;7.00;6.30;;;8.10;62.90;;;;;;5010317;28;20486;-42
2020/12/07 00:30:29;;;;;;;6.70;6.00;;;8.30;62.70;;;;;;5004656;28;20557;-42
2020/12/07 00:32:54;;;;;;;6.77;6.10;;;8.30;62.30;;;;;;5010984;28;20214;-42
2020/12/07 00:35:20;;;;;;;6.80;6.10;;;8.00;62.30;;;;;;5011920;28;20606;-42
2020/12/07 00:37:45;;;;;;;5.60;4.80;;;8.00;63.20;;;;;;5001480;28;20677;-42
2020/12/07 00:40:11;;;;;;;5.37;4.87;;;7.50;63.80;;;;;;5009246;28;20236;-42
2020/12/07 00:42:36;;;;;;;6.07;5.40;;;7.30;64.80;;;;;;5006554;28;20328;-42
2020/12/07 00:45:02;;;;;;;6.43;5.77;;;7.30;65.90;;;;;;4999566;28;20235;-42
2020/12/07 00:47:28;;;;;;;7.03;6.30;;;7.50;65.70;;;;;;5007504;28;20296;-42
2020/12/07 00:49:54;;;;;;;6.27;5.70;;;7.60;65.10;;;;;;5002155;28;20887;-42
2020/12/07 00:52:19;;;;;;;6.63;5.80;;;7.60;64.80;;;;;;5004504;28;20255;-42
2020/12/07 00:54:45;;;;;;;6.00;5.37;;;7.30;65.80;;;;;;5006022;28;20208;-42
2020/12/07 00:57:10;;;;;;;6.63;5.00;;;7.30;65.90;;;;;;5010124;28;20194;-42
2020/12/07 00:59:36;;;;;;;7.30;6.57;;;7.30;66.30;;;;;;5010604;28;20276;-42
2020/12/07 01:02:01;;;;;;;6.97;5.03;;;7.40;66.20;;;;;;5008940;28;20220;-42
2020/12/07 01:04:27;;;;;;;4.80;4.40;;;7.40;66.30;;;;;;5008870;28;20255;-43
2020/12/07 01:06:53;;;;;;;6.73;5.00;;;7.30;66.20;;;;;;5009021;28;20206;-42
2020/12/07 01:09:20;;;;;;;5.70;5.10;;;7.30;67.10;;;;;;5004634;28;20657;-42
2020/12/07 01:11:52;;;;;;;6.90;5.43;;;7.40;66.60;;;;;;5009301;28;20534;-42
2020/12/07 01:14:17;;;;;;;6.90;5.57;;;7.50;66.40;;;;;;4997855;28;20508;-42
2020/12/07 01:16:43;;;;;;;6.77;6.03;;;7.40;66.10;;;;;;5009483;28;20504;-42
2020/12/07 01:19:09;;;;;;;6.17;5.57;;;7.50;66.10;;;;;;4997309;28;21164;-42
2020/12/07 01:21:35;;;;;;;7.63;5.33;;;7.60;65.80;;;;;;5005886;28;20541;-42
2020/12/07 01:24:01;;;;;;;7.57;5.90;;;7.80;65.80;;;;;;5007274;28;20217;-42
2020/12/07 01:26:27;;;;;;;6.53;5.37;;;7.90;65.20;;;;;;5008725;28;20448;-42
2020/12/07 01:28:55;;;;;;;6.33;5.20;;;7.90;65.20;;;;;;5007278;28;20460;-42
2020/12/07 01:31:20;;;;;;;6.47;5.57;;;8.10;64.80;;;;;;5008403;28;20197;-42
2020/12/07 01:33:46;;;;;;;5.90;4.93;;;8.20;64.50;;;;;;5005588;28;20484;-42
2020/12/07 01:36:12;;;;;;;5.10;4.60;;;8.30;63.90;;;;;;5009873;28;20273;-42
2020/12/07 01:38:38;;;;;;;5.47;4.73;;;8.40;63.30;;;;;;5004166;28;20205;-42
2020/12/07 01:41:04;;;;;;;5.20;4.60;;;8.50;63.20;;;;;;5006071;28;20444;-42
2020/12/07 01:43:30;;;;;;;5.43;4.90;;;8.50;63.00;;;;;;5006732;28;20476;-42
2020/12/07 01:45:56;;;;;;;5.27;4.80;;;8.50;62.60;;;;;;5005997;28;20602;-42
2020/12/07 01:48:25;;;;;;;4.20;3.80;;;8.60;62.50;;;;;;5005299;28;20208;-42
2020/12/07 01:50:52;;;;;;;4.97;3.90;;;8.70;62.40;;;;;;5005471;28;20476;-42
2020/12/07 01:53:18;;;;;;;3.80;3.50;;;8.50;61.90;;;;;;5003645;28;20492;-42
2020/12/07 01:55:44;;;;;;;4.17;3.40;;;8.50;62.30;;;;;;5004723;28;20455;-42
2020/12/07 01:58:10;;;;;;;5.80;4.33;;;8.50;62.20;;;;;;5003109;28;20507;-42
2020/12/07 02:00:36;;;;;;;4.57;4.17;;;8.50;62.10;;;;;;5007215;28;20459;-42
2020/12/07 02:03:02;;;;;;;5.20;4.17;;;8.50;61.90;;;;;;5008038;28;20441;-42
2020/12/07 02:05:27;;;;;;;4.10;3.70;;;8.30;62.10;;;;;;5008477;28;20202;-42
2020/12/07 02:08:13;;;;;;;4.10;3.63;;;8.00;63.10;;;;;;5006069;28;20215;-42
2020/12/07 02:10:39;;;;;;;3.93;3.57;;;7.60;64.70;;;;;;5006899;28;20303;-42
2020/12/07 02:13:05;;;;;;;4.40;4.00;;;7.40;65.70;;;;;;5000733;28;20550;-42
2020/12/07 02:15:30;;;;;;;4.30;3.90;;;7.30;66.10;;;;;;5007014;28;20448;-42
2020/12/07 02:17:56;;;;;;;4.00;3.70;;;7.20;65.90;;;;;;4999718;28;20677;-42
2020/12/07 02:20:22;;;;;;;5.10;4.33;;;7.00;67.10;;;;;;5004361;28;20486;-42
2020/12/07 02:22:47;;;;;;;5.97;4.90;;;7.00;68.00;;;;;;5003259;28;20207;-42
2020/12/07 02:25:13;;;;;;;3.33;3.03;;;7.10;68.00;;;;;;5010785;28;20200;-42
2020/12/07 02:27:38;;;;;;;4.20;3.40;;;7.00;68.10;;;;;;5006683;28;20236;-42
2020/12/07 02:30:04;;;;;;;3.70;3.40;;;7.20;67.90;;;;;;5008832;28;20198;-42
2020/12/07 02:32:30;;;;;;;3.60;3.30;;;7.20;67.00;;;;;;5010478;28;20284;-42
2020/12/07 02:34:55;;;;;;;4.83;3.40;;;7.40;66.80;;;;;;5011924;28;20192;-42
2020/12/07 02:37:22;;;;;;;3.80;3.50;;;7.50;66.40;;;;;;5012044;28;20198;-42
2020/12/07 02:39:48;;;;;;;3.30;3.00;;;7.60;66.00;;;;;;5012598;28;20653;-42
2020/12/07 02:42:14;;;;;;;2.80;2.60;;;7.50;65.50;;;;;;5013066;28;20445;-42
2020/12/07 02:44:40;;;;;;;3.20;2.90;;;7.20;67.40;;;;;;5010769;28;20651;-42
2020/12/07 02:47:05;;;;;;;3.27;2.97;;;7.50;66.90;;;;;;5010969;28;20547;-42
2020/12/07 02:49:31;;;;;;;3.10;2.43;;;7.70;66.30;;;;;;5010795;28;20202;-42
2020/12/07 02:51:57;;;;;;;3.37;3.07;;;8.00;65.50;;;;;;5012215;28;20637;-42
2020/12/07 02:54:23;;;;;;;3.87;2.80;;;8.20;64.50;;;;;;5008765;28;22048;-42
2020/12/07 02:56:48;;;;;;;4.13;2.80;;;8.20;64.10;;;;;;5008743;28;20445;-42
2020/12/07 02:59:14;;;;;;;2.93;2.63;;;8.30;63.40;;;;;;5009585;28;20587;-42
2020/12/07 03:01:39;;;;;;;3.03;2.83;;;8.40;63.40;;;;;;5005709;28;20564;-42
2020/12/07 03:04:05;;;;;;;2.50;2.30;;;8.40;63.10;;;;;;5001523;28;20267;-42
2020/12/07 03:06:30;;;;;;;2.33;2.13;;;8.40;63.00;;;;;;5006284;28;20273;-42
2020/12/07 03:08:56;;;;;;;2.50;2.30;;;8.50;62.90;;;;;;5011092;28;20190;-42
2020/12/07 03:11:22;;;;;;;2.87;2.50;;;8.60;62.70;;;;;;5009378;28;20245;-42
2020/12/07 03:13:48;;;;;;;2.30;2.10;;;8.40;62.40;;;;;;5010420;28;20566;-42
2020/12/07 03:16:13;;;;;;;2.23;2.03;;;8.40;62.70;;;;;;5007308;28;20448;-42
2020/12/07 03:18:39;;;;;;;1.97;1.77;;;8.40;63.00;;;;;;5011974;28;20293;-42
2020/12/07 03:21:04;;;;;;;3.50;2.50;;;8.40;63.00;;;;;;5006679;28;20205;-42
2020/12/07 03:23:30;;;;;;;2.30;2.10;;;8.30;63.10;;;;;;5010059;28;20194;-42
2020/12/07 03:25:55;;;;;;;2.60;2.40;;;8.40;63.10;;;;;;5008359;28;20256;-42
2020/12/07 03:28:21;;;;;;;2.50;2.30;;;8.40;62.80;;;;;;5011234;28;20201;-42
2020/12/07 03:30:46;;;;;;;2.60;2.20;;;8.50;62.90;;;;;;5009462;28;20234;-42
2020/12/07 03:33:12;;;;;;;2.00;1.90;;;8.50;63.00;;;;;;5005332;28;20648;-42
2020/12/07 03:35:38;;;;;;;1.97;1.77;;;8.50;62.60;;;;;;5005820;28;20245;-42
2020/12/07 03:38:03;;;;;;;1.83;1.70;;;8.50;63.00;;;;;;5007219;28;20217;-42
2020/12/07 03:40:33;;;;;;;2.30;2.10;;;8.40;63.10;;;;;;5009826;28;22347;-42
2020/12/07 03:42:59;;;;;;;2.50;2.30;;;8.40;63.20;;;;;;5010830;28;20197;-42
2020/12/07 03:45:24;;;;;;;2.03;1.93;;;8.40;63.20;;;;;;5011602;28;21411;-43
2020/12/07 03:47:50;;;;;;;2.33;2.13;;;8.30;63.10;;;;;;5006363;28;21018;-42
2020/12/07 03:50:16;;;;;;;1.63;1.53;;;8.40;63.30;;;;;;5010847;28;20271;-42
2020/12/07 03:52:41;;;;;;;3.00;2.07;;;8.30;63.40;;;;;;5011694;28;20209;-42
2020/12/07 03:55:07;;;;;;;2.10;1.90;;;8.40;63.60;;;;;;5007431;28;20206;-42
2020/12/07 03:57:32;;;;;;;2.47;2.00;;;8.40;63.70;;;;;;5005876;28;20209;-42
2020/12/07 03:59:58;;;;;;;2.30;2.10;;;8.40;63.30;;;;;;5001626;28;20190;-42
2020/12/07 04:02:23;;;;;;;1.90;1.80;;;8.50;63.30;;;;;;5011296;28;20653;-42
2020/12/07 04:07:14;;;;;;;2.10;1.70;;;8.50;63.10;;;;;;5011204;28;20198;-42
2020/12/07 04:09:40;;;;;;;2.13;2.00;;;8.50;63.20;;;;;;5005317;28;20238;-42
2020/12/07 04:12:05;;;;;;;2.27;2.03;;;8.60;62.80;;;;;;5004551;28;20190;-42
2020/12/07 04:14:31;;;;;;;2.10;1.90;;;8.70;62.40;;;;;;5011445;28;20248;-42
2020/12/07 04:16:56;;;;;;;2.30;2.10;;;8.70;62.30;;;;;;5009481;28;20200;-42
2020/12/07 04:19:22;;;;;;;2.90;2.20;;;8.80;62.70;;;;;;5008478;28;20650;-42
2020/12/07 04:21:48;;;;;;;2.13;1.93;;;8.80;62.40;;;;;;5004840;28;20865;-43
2020/12/07 04:24:13;;;;;;;3.90;2.00;;;8.90;62.30;;;;;;5010498;28;20268;-42
2020/12/07 04:26:39;;;;;;;2.17;2.00;;;8.80;62.20;;;;;;5002254;28;20199;-42
2020/12/07 04:29:04;;;;;;;1.97;1.87;;;8.70;62.30;;;;;;5008264;28;20208;-42
2020/12/07 04:31:30;;;;;;;3.33;1.97;;;8.80;62.30;;;;;;5002713;28;20277;-42
2020/12/07 04:33:55;;;;;;;2.93;2.10;;;8.80;62.10;;;;;;5000494;28;20600;-42
2020/12/07 04:36:21;;;;;;;2.07;1.90;;;8.90;62.00;;;;;;5004638;28;20242;-42
2020/12/07 04:38:46;;;;;;;1.80;1.70;;;8.90;61.70;;;;;;5008978;28;20288;-42
2020/12/07 04:41:13;;;;;;;2.40;2.17;;;8.90;61.70;;;;;;5007246;28;20196;-42
2020/12/07 04:43:40;;;;;;;2.30;2.10;;;9.00;61.30;;;;;;5007157;28;20311;-42
2020/12/07 04:48:41;;;;;;;1.90;1.80;;;9.10;61.30;;;;;;4235107;28;20510;-42
2020/12/07 04:51:11;;;;;;;2.10;2.00;;;9.20;61.40;;;;;;5002460;28;20442;-42
2020/12/07 04:53:38;;;;;;;1.70;1.60;;;9.20;62.00;;;;;;5008368;28;20489;-42
2020/12/07 04:56:03;;;;;;;2.20;2.10;;;8.90;61.20;;;;;;5008735;28;20452;-43
2020/12/07 04:58:29;;;;;;;4.87;1.90;;;8.80;62.00;;;;;;5013212;28;21006;-42
2020/12/07 05:00:54;;;;;;;2.50;2.30;;;8.80;62.10;;;;;;5009541;28;20202;-42
2020/12/07 05:03:20;;;;;;;2.17;1.97;;;8.70;62.40;;;;;;5005985;28;20193;-42
2020/12/07 05:05:50;;;;;;;2.03;1.93;;;8.80;62.80;;;;;;5007954;28;20562;-42
2020/12/07 05:08:16;;;;;;;1.87;1.77;;;8.90;62.00;;;;;;5008871;28;20931;-42
2020/12/07 05:10:43;;;;;;;2.27;2.07;;;8.90;61.40;;;;;;5007392;28;20440;-43
2020/12/07 05:13:32;;;;;;;2.40;1.90;;;8.80;61.90;;;;;;5007084;28;20258;-42
2020/12/07 05:15:58;;;;;;;2.00;1.90;;;9.00;61.90;;;;;;5010559;28;20825;-43
2020/12/07 05:18:23;;;;;;;2.13;1.97;;;9.10;61.40;;;;;;5007939;28;20448;-42
2020/12/07 05:20:49;;;;;;;1.80;1.70;;;9.20;61.40;;;;;;5008813;28;20206;-43
2020/12/07 05:23:15;;;;;;;3.40;2.37;;;9.20;61.20;;;;;;5007941;28;20205;-42
2020/12/07 05:25:44;;;;;;;2.03;1.90;;;9.20;61.30;;;;;;5008804;28;20225;-42
2020/12/07 05:28:11;;;;;;;2.37;2.17;;;9.30;61.20;;;;;;5009144;28;20444;-42
2020/12/07 05:30:44;;;;;;;3.00;2.50;;;9.20;61.10;;;;;;5004027;28;20806;-43
2020/12/07 05:33:12;;;;;;;2.57;2.37;;;9.20;60.70;;;;;;5008084;28;20852;-42
2020/12/07 05:35:38;;;;;;;2.50;2.27;;;9.20;60.60;;;;;;5006371;28;20507;-42
2020/12/07 05:38:05;;;;;;;2.30;2.10;;;9.20;60.60;;;;;;5004427;28;20476;-42
2020/12/07 05:40:31;;;;;;;5.80;2.47;;;9.10;60.90;;;;;;5009533;28;20448;-42
2020/12/07 05:42:58;;;;;;;2.50;2.30;;;9.10;60.90;;;;;;5009933;28;20441;-42
2020/12/07 05:45:24;;;;;;;2.90;2.57;;;9.10;60.90;;;;;;5006903;28;20194;-42
2020/12/07 05:47:53;;;;;;;3.80;2.70;;;9.10;61.10;;;;;;5013090;28;20437;-43
2020/12/07 05:50:19;;;;;;;2.70;2.50;;;9.20;60.80;;;;;;5010075;28;20476;-42
2020/12/07 05:52:53;;;;;;;2.83;2.37;;;9.20;60.60;;;;;;5007333;28;20496;-42
2020/12/07 05:55:20;;;;;;;2.83;2.57;;;9.20;60.60;;;;;;5008860;28;20452;-43
2020/12/07 05:58:08;;;;;;;2.80;2.47;;;9.30;60.60;;;;;;5006756;28;20813;-43
2020/12/07 06:00:37;;;;;;;3.30;2.57;;;9.30;60.70;;;;;;5009622;28;20444;-42
2020/12/07 06:03:05;;;;;;;2.63;2.43;;;9.30;60.70;;;;;;5007216;28;20447;-43
2020/12/07 06:05:31;;;;;;;2.70;2.50;;;9.30;60.50;;;;;;5007256;28;20800;-42
2020/12/07 06:08:16;;;;;;;2.83;2.63;;;9.30;60.60;;;;;;5000029;28;20531;-43
2020/12/07 06:11:05;;;;;;;4.40;2.10;;;9.40;60.70;;;;;;5008120;28;20201;-43
2020/12/07 06:13:32;;;;;;;2.80;2.20;;;9.40;61.70;;;;;;5006408;28;20489;-43
2020/12/07 06:15:59;;;;;;;3.83;2.47;;;9.80;63.40;;;;;;5006400;28;20875;-43
2020/12/07 06:18:25;;;;;;;2.43;2.23;;;10.10;63.20;;;;;;5004421;28;21003;-43
2020/12/07 06:21:18;;;;;;;2.87;2.60;;;10.40;62.70;;;;;;5005795;28;20530;-42
2020/12/07 06:23:47;;;;;;;5.50;2.53;;;10.60;61.80;;;;;;5009023;28;20441;-43
2020/12/07 06:26:14;;;;;;;3.43;3.13;;;10.80;60.30;;;;;;5009639;28;20532;-43
2020/12/07 06:28:42;;;;;;;3.70;3.20;;;11.00;60.10;;;;;;5012322;28;20518;-42
2020/12/07 06:31:12;;;;;;;4.07;3.67;;;11.20;58.80;;;;;;5007299;28;20440;-42
2020/12/07 06:33:46;;;;;;;3.17;2.90;;;11.10;57.00;;;;;;5007540;28;20603;-42
2020/12/07 06:36:29;;;;;;;4.67;3.00;;;11.20;57.10;;;;;;5004631;28;20548;-42
2020/12/07 06:38:56;;;;;;;4.17;3.77;;;11.20;56.60;;;;;;5003028;28;20478;-42
2020/12/07 06:41:40;;;;;;;3.73;3.40;;;11.20;56.70;;;;;;5007031;28;20827;-42
2020/12/07 06:44:19;;;;;;;2.90;2.53;;;11.20;56.60;;;;;;5008176;28;20808;-42
2020/12/07 06:49:55;;;;;;;3.93;3.40;;;11.10;56.10;;;;;;5007110;28;20480;-42
2020/12/07 06:52:24;;;;;;;3.40;3.10;;;11.20;56.00;;;;;;5009506;28;20452;-42
2020/12/07 06:57:44;;;;;;;3.10;2.80;;;11.20;55.90;;;;;;5006741;28;20850;-42
2020/12/07 07:00:17;;;;;;;5.83;2.87;;;11.30;56.00;;;;;;5003382;28;20458;-42
2020/12/07 07:02:51;;;;;;;3.60;3.30;;;11.30;55.60;;;;;;5003424;28;20852;-42
2020/12/07 07:05:19;;;;;;;3.13;2.83;;;11.30;55.30;;;;;;5006319;28;20456;-42
2020/12/07 07:07:45;;;;;;;3.77;3.47;;;11.30;55.40;;;;;;5007592;28;20540;-42
2020/12/07 07:10:12;;;;;;;3.70;3.40;;;11.30;55.50;;;;;;5009185;28;20931;-42
2020/12/07 07:12:39;;;;;;;3.30;3.10;;;11.40;55.30;;;;;;5007078;28;20770;-42
2020/12/07 07:15:07;;;;;;;4.07;3.77;;;11.40;55.00;;;;;;5002001;28;20889;-42
2020/12/07 07:17:35;;;;;;;3.77;3.47;;;11.40;55.20;;;;;;5002525;28;20440;-43
2020/12/07 07:20:15;;;;;;;6.00;4.40;;;11.70;55.60;;;;;;5004619;28;20445;-42
2020/12/07 07:22:43;;;;;;;3.27;3.03;;;12.20;54.30;;;;;;5010256;28;20447;-42
2020/12/07 07:25:26;;;;;;;4.53;3.20;;;13.00;52.60;;;;;;5008322;28;21038;-42
2020/12/07 07:30:23;;;;;;;4.47;4.07;;;14.10;48.70;;;;;;5011377;28;20942;-42
2020/12/07 07:32:50;;;;;;;4.13;3.70;;;14.60;47.20;;;;;;5004401;28;20495;-42
2020/12/07 07:35:18;;;;;;;5.57;4.43;;;15.20;46.90;;;;;;5007209;28;20965;-42
2020/12/07 07:37:44;;;;;;;3.63;3.33;;;16.10;45.00;;;;;;5008188;28;20451;-42
2020/12/07 07:40:12;;;;;;;4.00;3.60;;;16.70;43.40;;;;;;5005783;28;20445;-43
2020/12/07 07:42:44;;;;;;;4.30;3.13;;;17.20;41.90;;;;;;5006311;28;20449;-41
2020/12/07 07:45:11;;;;;;;4.80;4.40;;;17.20;42.10;;;;;;5010981;28;20514;-43
2020/12/07 07:47:45;;;;;;;5.17;4.70;;;17.10;42.40;;;;;;5019426;28;20447;-42
2020/12/07 08:17:19;;;;;;;6.67;4.73;;;13.20;50.80;;;;;;5011265;28;20431;-42
2020/12/07 08:19:48;;;;;;;4.63;4.17;;;12.90;51.10;;;;;;5013221;28;20900;-42
2020/12/07 08:22:19;;;;;;;6.80;5.37;;;12.90;51.20;;;;;;5012211;28;20186;-42
2020/12/07 08:24:58;;;;;;;9.83;3.97;;;12.80;51.80;;;;;;5011146;28;20441;-42
2020/12/07 08:27:34;;;;;;;5.47;4.90;;;12.70;51.90;;;;;;5010208;28;20488;-42
2020/12/07 08:30:02;;;;;;;4.77;3.97;;;12.70;51.80;;;;;;5010943;28;20448;-42
2020/12/07 08:32:28;;;;;;;3.73;3.40;;;12.70;51.80;;;;;;5012375;28;20436;-43
2020/12/07 08:34:53;;;;;;;3.90;3.50;;;12.50;51.90;;;;;;5011239;28;20800;-43
2020/12/07 08:37:19;;;;;;;3.60;3.20;;;12.50;51.90;;;;;;5011244;28;20224;-43
2020/12/07 08:39:44;;;;;;;2.87;2.67;;;12.20;52.30;;;;;;5012890;28;20197;-42
2020/12/07 08:42:10;;;;;;;4.03;2.87;;;12.00;52.80;;;;;;5012292;28;20194;-42
2020/12/07 08:44:37;;;;;;;3.10;2.83;;;12.00;52.70;;;;;;5010591;28;20261;-42
2020/12/07 08:47:07;;;;;;;3.67;3.20;;;11.80;53.10;;;;;;5020975;28;20201;-42
2020/12/07 08:49:32;;;;;;;2.77;2.57;;;11.80;53.70;;;;;;5012694;28;20504;-43
2020/12/07 08:51:58;;;;;;;3.23;2.93;;;11.80;53.50;;;;;;5012150;28;20460;-42
2020/12/07 08:54:24;;;;;;;3.77;3.43;;;11.80;53.30;;;;;;5008407;28;20348;-42
2020/12/07 08:56:49;;;;;;;6.53;2.90;;;11.70;53.20;;;;;;5011109;28;20250;-42
2020/12/07 08:59:15;;;;;;;2.70;2.43;;;11.40;53.70;;;;;;5011912;28;20661;-42
2020/12/07 09:01:41;;;;;;;2.63;2.43;;;11.60;54.10;;;;;;5010100;28;20301;-42
2020/12/07 09:04:10;;;;;;;4.20;2.80;;;11.70;54.40;;;;;;5010648;28;20606;-42
2020/12/07 09:06:39;;;;;;;3.63;3.33;;;11.70;54.70;;;;;;5009481;28;20202;-42
2020/12/07 09:09:05;;;;;;;3.70;3.17;;;12.00;54.50;;;;;;5012114;28;20421;-42
2020/12/07 09:11:30;;;;;;;4.30;2.97;;;12.10;54.40;;;;;;5009909;28;20947;-42
2020/12/07 09:13:56;;;;;;;3.97;3.23;;;12.10;54.70;;;;;;5012176;28;20225;-43
2020/12/07 09:16:22;;;;;;;6.63;3.23;;;12.00;54.30;;;;;;5009309;28;20206;-42
2020/12/07 09:18:48;;;;;;;3.27;2.97;;;12.00;54.70;;;;;;5012249;28;20186;-42
2020/12/07 09:21:14;;;;;;;3.83;2.93;;;12.10;54.10;;;;;;5008790;28;20197;-42
2020/12/07 09:23:39;;;;;;;3.00;2.80;;;12.20;53.60;;;;;;5012360;28;20436;-42
2020/12/07 09:26:07;;;;;;;2.80;2.47;;;12.20;53.60;;;;;;5010711;28;20193;-42
2020/12/07 09:28:35;;;;;;;3.10;2.90;;;12.20;54.00;;;;;;5009815;28;20194;-42
2020/12/07 09:31:01;;;;;;;5.70;3.50;;;11.90;53.50;;;;;;5010516;28;20448;-42
2020/12/07 09:33:27;;;;;;;3.07;2.50;;;11.90;54.90;;;;;;5010148;28;21017;-42
2020/12/07 09:35:52;;;;;;;6.27;2.90;;;11.90;54.30;;;;;;5009830;28;20448;-42
2020/12/07 09:38:18;;;;;;;3.20;2.23;;;11.90;54.70;;;;;;5010096;28;20198;-42
2020/12/07 09:40:43;;;;;;;2.40;2.00;;;11.80;54.20;;;;;;5008938;28;20261;-42
2020/12/07 09:43:09;;;;;;;2.93;2.73;;;11.30;54.30;;;;;;5011859;28;20200;-42
2020/12/07 09:45:35;;;;;;;3.37;1.90;;;10.90;55.80;;;;;;5009574;28;20245;-42
2020/12/07 09:48:01;;;;;;;2.33;2.07;;;11.10;56.30;;;;;;5007571;28;20273;-43
2020/12/07 09:50:27;;;;;;;2.50;1.80;;;11.80;55.70;;;;;;5008979;28;20217;-42
2020/12/07 09:52:52;;;;;;;2.43;2.20;;;11.90;52.90;;;;;;5009759;28;20489;-42
2020/12/07 09:55:18;;;;;;;2.47;2.37;;;12.10;54.30;;;;;;5011540;28;20236;-42
2020/12/07 09:57:44;;;;;;;3.30;2.50;;;12.50;53.60;;;;;;5009906;28;20205;-43
2020/12/07 10:00:10;;;;;;;2.47;2.27;;;12.90;53.10;;;;;;5009720;28;20292;-42
2020/12/07 10:02:36;;;;;;;1.93;1.83;;;12.80;52.40;;;;;;5010094;28;20190;-43
2020/12/07 10:05:03;;;;;;;3.37;2.50;;;12.80;53.00;;;;;;5010471;28;20189;-43
2020/12/07 10:07:28;;;;;;;2.23;2.00;;;12.50;53.00;;;;;;5009895;28;20472;-43
2020/12/07 10:09:54;;;;;;;2.67;2.30;;;12.50;52.70;;;;;;5009293;28;20488;-43
2020/12/07 10:12:19;;;;;;;3.40;3.10;;;12.40;52.10;;;;;;5010199;28;20205;-43
2020/12/07 10:14:45;;;;;;;3.00;2.60;;;12.00;52.70;;;;;;5009792;28;20268;-42
2020/12/07 10:17:11;;;;;;;3.43;2.70;;;12.10;54.20;;;;;;5009247;28;20197;-43
2020/12/07 10:19:36;;;;;;;2.87;2.67;;;12.50;52.30;;;;;;5002301;28;20662;-43
2020/12/07 10:22:04;;;;;;;4.83;2.80;;;12.70;51.80;;;;;;5009905;28;20194;-43
2020/12/07 10:24:30;;;;;;;3.40;2.67;;;12.50;51.80;;;;;;5027879;28;20716;-43
2020/12/07 10:26:56;;;;;;;3.90;3.40;;;12.30;52.30;;;;;;5009594;28;20436;-43
2020/12/07 10:29:22;;;;;;;3.57;2.77;;;12.10;52.30;;;;;;5010220;28;20499;-43
2020/12/07 10:31:47;;;;;;;3.60;3.30;;;11.70;53.40;;;;;;5009128;28;20194;-42
2020/12/07 10:34:13;;;;;;;3.43;3.13;;;11.20;53.80;;;;;;5009885;28;20383;-43
2020/12/07 10:36:38;;;;;;;4.07;3.10;;;10.80;54.70;;;;;;5008995;28;20197;-41
2020/12/07 10:39:08;;;;;;;3.27;2.83;;;10.50;55.70;;;;;;5006878;28;20200;-42
2020/12/07 10:41:34;;;;;;;2.63;2.43;;;10.50;56.30;;;;;;4999495;28;20190;-41
2020/12/07 10:44:00;;;;;;;3.17;2.77;;;10.50;56.10;;;;;;5006341;28;20457;-42
2020/12/07 10:46:25;;;;;;;2.80;2.60;;;10.40;56.60;;;;;;5008824;28;20277;-42
2020/12/07 10:48:51;;;;;;;3.90;2.13;;;10.90;56.70;;;;;;5007295;28;20762;-41
2020/12/07 10:51:18;;;;;;;2.90;2.53;;;11.30;54.80;;;;;;5011050;28;21970;-42
2020/12/07 10:53:44;;;;;;;2.97;2.33;;;11.60;53.70;;;;;;5008604;28;20221;-42
2020/12/07 10:56:10;;;;;;;6.97;2.70;;;12.20;53.10;;;;;;5013029;28;21247;-42
2020/12/07 10:58:38;;;;;;;2.40;2.20;;;12.70;50.80;;;;;;5011749;28;20436;-42
2020/12/07 11:01:04;;;;;;;2.60;2.30;;;13.40;49.60;;;;;;5011488;28;20441;-42
2020/12/07 11:03:30;;;;;;;3.73;2.80;;;13.80;49.10;;;;;;5012836;28;20502;-42
2020/12/07 11:05:56;;;;;;;2.70;2.50;;;14.00;48.10;;;;;;5013273;28;20454;-42
2020/12/07 11:08:31;;;;;;;2.90;2.60;;;14.10;47.70;;;;;;5010811;28;20190;-42
2020/12/07 11:10:57;;;;;;;2.70;2.50;;;14.20;47.30;;;;;;5000451;28;20563;-42
2020/12/07 11:13:28;;;;;;;4.90;2.77;;;14.20;47.10;;;;;;5011818;28;20488;-42
2020/12/07 11:15:55;;;;;;;3.80;3.07;;;14.20;47.20;;;;;;5009471;28;20310;-42
2020/12/07 11:18:20;;;;;;;3.60;2.50;;;14.30;47.40;;;;;;5012781;28;20445;-42
2020/12/07 11:20:46;;;;;;;3.10;2.77;;;14.30;47.10;;;;;;5009687;28;20436;-41
2020/12/07 11:23:12;;;;;;;7.10;2.67;;;14.40;47.00;;;;;;5010549;28;20899;-41
2020/12/07 11:25:37;;;;;;;2.90;2.53;;;14.20;47.80;;;;;;5009715;28;20198;-41
2020/12/07 11:28:03;;;;;;;3.30;3.00;;;14.20;47.20;;;;;;5012727;28;20217;-42
2020/12/07 11:30:28;;;;;;;3.07;2.77;;;13.70;47.40;;;;;;5012651;28;20251;-41
2020/12/07 11:32:54;;;;;;;2.47;2.27;;;13.40;48.10;;;;;;5009364;28;20229;-41
2020/12/07 11:35:20;;;;;;;3.83;2.80;;;13.30;48.60;;;;;;5012436;28;20203;-42
2020/12/07 11:37:51;;;;;;;2.90;2.70;;;13.30;49.30;;;;;;5001816;28;20295;-41
2020/12/07 11:43:16;;;;;;;3.60;2.97;;;13.00;48.90;;;;;;5001017;28;20453;-41
2020/12/07 11:45:42;;;;;;;3.00;2.70;;;13.00;48.40;;;;;;5012991;28;20440;-41
2020/12/07 11:48:09;;;;;;;2.73;2.53;;;12.40;49.00;;;;;;5010927;28;20437;-42
2020/12/07 11:50:35;;;;;;;3.93;2.80;;;12.00;50.40;;;;;;5013252;28;20926;-41
2020/12/07 11:53:01;;;;;;;4.03;3.10;;;11.80;51.00;;;;;;5011538;28;20568;-41
2020/12/07 11:55:26;;;;;;;3.27;3.00;;;11.60;51.90;;;;;;5011678;28;20485;-41
2020/12/07 11:57:52;;;;;;;3.43;3.13;;;11.50;52.20;;;;;;5009455;28;20190;-42
2020/12/07 12:00:17;;;;;;;3.00;2.80;;;11.50;52.80;;;;;;5011495;28;20680;-42
2020/12/07 12:02:43;;;;;;;3.60;3.17;;;11.60;52.20;;;;;;5010236;28;20289;-41
2020/12/07 12:05:08;;;;;;;3.30;3.00;;;11.30;51.90;;;;;;5008724;28;20206;-41
2020/12/07 12:07:34;;;;;;;2.73;2.53;;;11.10;52.80;;;;;;5008623;28;20202;-41
2020/12/07 12:10:00;;;;;;;4.10;3.57;;;11.30;53.00;;;;;;5011946;28;20198;-41
2020/12/07 12:12:26;;;;;;;3.27;2.97;;;11.10;53.50;;;;;;5011767;28;20187;-41
2020/12/07 12:14:51;;;;;;;3.53;2.87;;;11.10;53.80;;;;;;5012073;28;20221;-41
2020/12/07 12:17:17;;;;;;;5.80;3.13;;;11.20;53.40;;;;;;5011060;28;20452;-41
2020/12/07 12:19:43;;;;;;;3.83;3.43;;;11.10;53.00;;;;;;5012961;28;20281;-41
2020/12/07 12:22:08;;;;;;;3.77;3.47;;;11.10;53.70;;;;;;5011973;28;20194;-41
2020/12/07 12:24:34;;;;;;;4.30;3.53;;;11.00;53.20;;;;;;5009903;28;20201;-41
2020/12/07 12:26:59;;;;;;;3.10;2.90;;;11.10;53.70;;;;;;5007030;28;20209;-41
2020/12/07 12:29:25;;;;;;;3.27;2.97;;;11.20;53.00;;;;;;5008682;28;20190;-41
2020/12/07 12:31:50;;;;;;;3.40;3.10;;;11.30;53.00;;;;;;5008265;28;20287;-41
2020/12/07 12:34:16;;;;;;;2.43;2.23;;;11.40;52.80;;;;;;5006293;28;20230;-41
2020/12/07 12:36:43;;;;;;;3.10;2.77;;;11.50;51.40;;;;;;5009994;28;20186;-41
2020/12/07 12:39:08;;;;;;;2.97;2.63;;;11.60;51.10;;;;;;5006174;28;20225;-41
2020/12/07 12:41:34;;;;;;;3.17;2.60;;;11.70;50.90;;;;;;5011835;28;20461;-41
2020/12/07 12:44:01;;;;;;;4.73;3.40;;;11.80;50.50;;;;;;5007515;28;20209;-41
2020/12/07 12:46:26;;;;;;;2.60;2.40;;;11.70;50.60;;;;;;5010679;28;20688;-41
2020/12/07 12:48:52;;;;;;;2.70;2.50;;;11.80;50.50;;;;;;5009978;28;20512;-41
2020/12/07 12:51:17;;;;;;;2.57;2.37;;;11.40;50.40;;;;;;5008201;28;20657;-41
2020/12/07 12:53:43;;;;;;;4.60;2.50;;;11.40;51.20;;;;;;5010250;28;20279;-41
2020/12/07 12:56:09;;;;;;;2.87;2.57;;;11.50;51.50;;;;;;5007404;28;20190;-41
2020/12/07 12:58:35;;;;;;;3.23;2.97;;;11.60;51.80;;;;;;5005608;28;20217;-41
2020/12/07 13:01:03;;;;;;;3.43;2.90;;;11.30;50.90;;;;;;5006984;28;20528;-41
2020/12/07 13:03:28;;;;;;;5.37;2.57;;;11.00;51.20;;;;;;5007675;28;20808;-41
2020/12/07 13:05:54;;;;;;;2.90;2.60;;;10.80;51.80;;;;;;5003907;28;20555;-42
2020/12/07 13:08:20;;;;;;;2.13;1.93;;;11.10;52.00;;;;;;5005703;28;20680;-42
2020/12/07 13:10:48;;;;;;;3.50;2.23;;;11.40;51.30;;;;;;5010580;28;20313;-42
2020/12/07 13:13:14;;;;;;;2.50;2.30;;;11.60;50.20;;;;;;5010570;28;20603;-42
2020/12/07 13:15:46;;;;;;;3.00;2.30;;;11.70;50.10;;;;;;5009185;28;20445;-42
2020/12/07 13:18:12;;;;;;;3.43;2.60;;;12.00;50.40;;;;;;5010864;28;20194;-42
2020/12/07 13:20:56;;;;;;;2.50;2.30;;;12.20;50.30;;;;;;5011262;28;20583;-42
2020/12/07 13:23:44;;;;;;;2.57;2.37;;;12.30;49.70;;;;;;5008120;28;20640;-42
2020/12/07 13:26:17;;;;;;;2.80;2.20;;;12.30;49.50;;;;;;5008662;28;20453;-42
2020/12/07 13:28:43;;;;;;;2.53;2.33;;;12.40;49.80;;;;;;5008349;28;20464;-42
2020/12/07 13:31:08;;;;;;;2.90;2.30;;;12.60;49.50;;;;;;5008078;28;21282;-42
2020/12/07 13:33:39;;;;;;;2.43;2.23;;;12.50;48.80;;;;;;5009185;28;20584;-42
2020/12/07 13:36:14;;;;;;;2.60;2.40;;;12.60;49.00;;;;;;5008407;28;20190;-42